^^
Datos históricos de la estación: Murcia-Puente Tocinos
Diario Informe para Octubre 1, 2019 Unidades:  Métrico    Ingés   Ambas
Diario Semanal Mensual Anual
  Máxima: Mínima: Promedio:
Temperatura: 34.1 °C 21.2 °C 26 °C
Punto de rocio: 20.3 °C 9.4 °C 16.4 °C
Humedad: 92% 22.9% 62%
Velocidad viento: 11.1km/h 0km/h 6.9km/h
Racha viento: 24.1km/h - -
Viento- - SSO
Presión: 1014.0 hPa 1007.2 hPa -
Precipitación: 0.0 mm    
 
 
Tabla de datos para Octubre 1, 2019
Hora Temperatura Punto de rocio Presión Viento Velocidad viento Racha viento Humedad Intensidad lluvia(por hora) Nubes
00:04 21.9 °C 20 °C 1014.0 hPa NNO 4.6 km/h 8 km/h 89.2% 0.0 mm
00:09 21.9 °C 20 °C 1014.0 hPa North 4.2 km/h 7.4 km/h 89% 0.0 mm
00:14 21.8 °C 20.1 °C 1014.0 hPa North 2.9 km/h 8.4 km/h 89.8% 0.0 mm
00:19 21.8 °C 20.1 °C 1014.0 hPa NNO 3.3 km/h 8 km/h 90% 0.0 mm
00:24 21.8 °C 20.1 °C 1013.9 hPa NNO 4.7 km/h 8 km/h 90% 0.0 mm
00:29 21.7 °C 20 °C 1013.9 hPa North 4.4 km/h 8 km/h 90% 0.0 mm
00:34 21.7 °C 20 °C 1013.9 hPa NNE 3.9 km/h 8.4 km/h 90% 0.0 mm
00:39 21.7 °C 20 °C 1013.9 hPa NE 4.1 km/h 8.4 km/h 90% 0.0 mm
00:44 21.6 °C 19.9 °C 1013.9 hPa NNE 4.7 km/h 8.4 km/h 90% 0.0 mm
00:49 21.5 °C 19.9 °C 1014.0 hPa NNE 4.7 km/h 8 km/h 90.9% 0.0 mm
00:54 21.4 °C 19.9 °C 1014.0 hPa NNE 5 km/h 8 km/h 91% 0.0 mm
00:59 21.4 °C 19.9 °C 1014.0 hPa NE 4.6 km/h 8 km/h 91% 0.0 mm
01:04 21.4 °C 19.9 °C 1014.0 hPa NE 3.9 km/h 6.4 km/h 91% 0.0 mm
01:09 21.4 °C 19.9 °C 1013.9 hPa NNE 3.7 km/h 7.4 km/h 91% 0.0 mm
01:14 21.3 °C 19.8 °C 1013.9 hPa NNE 3.2 km/h 8 km/h 91% 0.0 mm
01:19 21.3 °C 19.8 °C 1013.9 hPa North 3.6 km/h 8.4 km/h 91.3% 0.0 mm
01:24 21.3 °C 19.9 °C 1013.8 hPa North 4.7 km/h 8.4 km/h 92% 0.0 mm
01:29 21.3 °C 19.9 °C 1013.8 hPa NNE 4.7 km/h 8 km/h 92% 0.0 mm
01:34 21.3 °C 19.9 °C 1013.8 hPa NNE 4.7 km/h 8 km/h 92% 0.0 mm
01:39 21.2 °C 19.9 °C 1013.5 hPa NE 4.5 km/h 8 km/h 92% 0.0 mm
01:44 21.2 °C 19.8 °C 1013.5 hPa NE 3.9 km/h 8 km/h 92% 0.0 mm
01:49 21.2 °C 19.8 °C 1013.5 hPa NE 3.9 km/h 8 km/h 92% 0.0 mm
01:54 21.3 °C 19.9 °C 1013.5 hPa NE 3.9 km/h 6.4 km/h 92% 0.0 mm
01:59 21.3 °C 19.9 °C 1013.5 hPa NE 3.6 km/h 4.7 km/h 92% 0.0 mm
02:04 21.3 °C 19.9 °C 1013.5 hPa NE 2.9 km/h 5.6 km/h 92% 0.0 mm
02:09 21.3 °C 19.9 °C 1013.3 hPa NNE 2.9 km/h 7.4 km/h 92% 0.0 mm
02:14 21.3 °C 20 °C 1013.3 hPa NNE 2.9 km/h 8 km/h 92% 0.0 mm
02:19 21.3 °C 20 °C 1013.3 hPa NNE 2.7 km/h 6.4 km/h 92% 0.0 mm
02:24 21.4 °C 20.1 °C 1013.2 hPa NE 2.2 km/h 5.8 km/h 92% 0.0 mm
02:29 21.4 °C 20.1 °C 1013.2 hPa NE 2.2 km/h 6.4 km/h 92% 0.0 mm
02:34 21.5 °C 20.2 °C 1013.4 hPa SSO 2.2 km/h 5.6 km/h 92% 0.0 mm
02:39 21.6 °C 20.2 °C 1013.4 hPa SSO 2.4 km/h 4.8 km/h 92% 0.0 mm
02:44 21.6 °C 20.2 °C 1013.4 hPa SSO 2.9 km/h 3.9 km/h 91.7% 0.0 mm
02:49 21.7 °C 20.2 °C 1013.4 hPa SSO 2.2 km/h 6.4 km/h 91.1% 0.0 mm
02:54 21.7 °C 20.2 °C 1013.3 hPa Calm   8 km/h 91% 0.0 mm
02:59 21.8 °C 20.3 °C 1013.3 hPa Este 0.8 km/h 8 km/h 91% 0.0 mm
03:04 21.8 °C 20.2 °C 1013.3 hPa NNO 2.9 km/h 7.6 km/h 90.5% 0.0 mm
03:09 21.9 °C 20.2 °C 1013.1 hPa NNO 3.3 km/h 8 km/h 90% 0.0 mm
03:14 21.9 °C 20.2 °C 1013.1 hPa NNE 4.7 km/h 8 km/h 90% 0.0 mm
03:19 21.9 °C 20.2 °C 1013.1 hPa North 4.3 km/h 8 km/h 90% 0.0 mm
03:24 22 °C 20.3 °C 1012.9 hPa North 3.2 km/h 5.8 km/h 90% 0.0 mm
03:29 22 °C 20.3 °C 1012.9 hPa North 3.2 km/h 7.4 km/h 90% 0.0 mm
03:34 22.1 °C 20.3 °C 1012.9 hPa NNO 3.2 km/h 10 km/h 89.7% 0.0 mm
03:39 22.1 °C 20.2 °C 1012.6 hPa NO 3.6 km/h 9.7 km/h 89% 0.0 mm
03:44 22.1 °C 20.2 °C 1012.6 hPa NO 4.7 km/h 9.7 km/h 89% 0.0 mm
03:49 22.1 °C 20.2 °C 1012.6 hPa Oeste 4.5 km/h 8 km/h 89% 0.0 mm
03:54 22.1 °C 20.1 °C 1012.4 hPa Oeste 3.9 km/h 7.6 km/h 88.3% 0.0 mm
03:59 22.1 °C 20 °C 1012.4 hPa Oeste 3.9 km/h 11.1 km/h 88% 0.0 mm
04:04 22.1 °C 20 °C 1012.4 hPa SO 3.9 km/h 11.3 km/h 88% 0.0 mm
04:09 22.1 °C 20 °C 1012.3 hPa Oeste 4.1 km/h 9.7 km/h 88% 0.0 mm
04:14 22.1 °C 20 °C 1012.3 hPa North 4.7 km/h 10.3 km/h 88% 0.0 mm
04:19 22.1 °C 20 °C 1012.3 hPa NO 4.7 km/h 11.3 km/h 88% 0.0 mm
04:24 22.1 °C 20 °C 1012.2 hPa NO 4.7 km/h 9.7 km/h 88% 0.0 mm
04:29 22.1 °C 20 °C 1012.2 hPa NNO 4.5 km/h 8 km/h 88% 0.0 mm
04:34 22.1 °C 20 °C 1012.2 hPa NO 3.9 km/h 5.6 km/h 88% 0.0 mm
04:39 22.1 °C 20 °C 1012.0 hPa Oeste 3.7 km/h 7.4 km/h 88% 0.0 mm
04:44 22.1 °C 20 °C 1012.0 hPa OSO 3.2 km/h 8.4 km/h 88% 0.0 mm
04:49 22.2 °C 20.1 °C 1012.0 hPa Oeste 3.6 km/h 8 km/h 87.9% 0.0 mm
04:54 22.2 °C 19.9 °C 1011.8 hPa Oeste 4.7 km/h 8 km/h 87% 0.0 mm
04:59 22.2 °C 19.9 °C 1011.8 hPa Oeste 4.2 km/h 8 km/h 87% 0.0 mm
05:04 22.2 °C 19.9 °C 1011.8 hPa OSO 3.2 km/h 8 km/h 87% 0.0 mm
05:09 22.3 °C 20 °C 1011.7 hPa SO 3.4 km/h 8.4 km/h 87% 0.0 mm
05:14 22.3 °C 20.1 °C 1011.7 hPa SO 3.9 km/h 8 km/h 87% 0.0 mm
05:19 22.3 °C 20.1 °C 1011.8 hPa SO 4.1 km/h 10 km/h 87% 0.0 mm
05:24 22.3 °C 20 °C 1011.8 hPa SO 4.7 km/h 9.7 km/h 86.6% 0.0 mm
05:29 22.3 °C 19.8 °C 1011.8 hPa OSO 4.7 km/h 10 km/h 86% 0.0 mm
05:34 22.3 °C 19.8 °C 1011.8 hPa ONO 5 km/h 9.7 km/h 86% 0.0 mm
05:39 22.3 °C 19.8 °C 1011.6 hPa ONO 4.6 km/h 9.7 km/h 86% 0.0 mm
05:44 22.3 °C 19.8 °C 1011.6 hPa OSO 3.2 km/h 10 km/h 86% 0.0 mm
05:49 22.3 °C 19.8 °C 1011.7 hPa SO 3.7 km/h 9.7 km/h 86% 0.0 mm
05:54 22.3 °C 19.8 °C 1011.7 hPa OSO 5 km/h 9.3 km/h 86% 0.0 mm
05:59 22.4 °C 19.9 °C 1011.7 hPa OSO 4.9 km/h 9.7 km/h 86% 0.0 mm
06:04 22.4 °C 19.9 °C 1011.7 hPa OSO 4.7 km/h 9.7 km/h 86% 0.0 mm
06:09 22.4 °C 19.9 °C 1011.5 hPa OSO 4.7 km/h 9.7 km/h 86% 0.0 mm
06:14 22.4 °C 19.9 °C 1011.5 hPa OSO 4.7 km/h 12.2 km/h 86% 0.0 mm
06:19 22.4 °C 19.8 °C 1011.5 hPa SO 4.7 km/h 13 km/h 85.4% 0.0 mm
06:24 22.4 °C 19.8 °C 1011.5 hPa OSO 5 km/h 12.9 km/h 85% 0.0 mm
06:29 22.4 °C 19.8 °C 1011.5 hPa OSO 4.9 km/h 9.7 km/h 85% 0.0 mm
06:34 22.4 °C 19.8 °C 1011.5 hPa SO 4.7 km/h 8 km/h 85% 0.0 mm
06:39 22.4 °C 19.8 °C 1011.4 hPa SSO 4.7 km/h 14.8 km/h 85% 0.0 mm
06:44 22.3 °C 19.7 °C 1011.4 hPa SO 5 km/h 14.5 km/h 85% 0.0 mm
06:49 22.3 °C 19.7 °C 1011.4 hPa SO 5.2 km/h 11.3 km/h 85% 0.0 mm
06:54 22.3 °C 19.7 °C 1011.4 hPa OSO 5.8 km/h 11.3 km/h 85% 0.0 mm
06:59 22.3 °C 19.7 °C 1011.4 hPa OSO 5.8 km/h 10 km/h 85% 0.0 mm
07:04 22.3 °C 19.7 °C 1011.4 hPa SO 5.8 km/h 11.1 km/h 85% 0.0 mm
07:09 22.3 °C 19.6 °C 1011.2 hPa SO 6 km/h 11.3 km/h 85% 0.0 mm
07:14 22.2 °C 19.6 °C 1011.2 hPa Sur 6.5 km/h 11.1 km/h 85% 0.0 mm
07:19 22.2 °C 19.5 °C 1011.3 hPa SSO 6.6 km/h 14.8 km/h 85% 0.0 mm
07:24 22.1 °C 19.4 °C 1011.3 hPa SO 6.9 km/h 14.5 km/h 85% 0.0 mm
07:29 22.1 °C 19.4 °C 1011.3 hPa OSO 6.9 km/h 13 km/h 85% 0.0 mm
07:34 22 °C 19.4 °C 1011.3 hPa Oeste 6.9 km/h 12.9 km/h 85% 0.0 mm
07:39 22 °C 19.5 °C 1011.3 hPa ONO 6.6 km/h 9.7 km/h 85.8% 0.0 mm
07:44 22 °C 19.5 °C 1011.3 hPa Oeste 5.8 km/h 11.9 km/h 86% 0.0 mm
07:49 22 °C 19.6 °C 1011.4 hPa SO 5.6 km/h 11.3 km/h 86% 0.0 mm
07:54 21.9 °C 19.5 °C 1011.4 hPa SSO 5 km/h 11.3 km/h 86% 0.0 mm
07:59 21.9 °C 19.4 °C 1011.4 hPa OSO 5.5 km/h 13 km/h 86% 0.0 mm
08:04 21.9 °C 19.4 °C 1011.4 hPa SO 6.9 km/h 13.7 km/h 85.9% 0.0 mm
08:09 21.9 °C 19.4 °C 1011.3 hPa SO 6.9 km/h 14.5 km/h 85.7% 0.0 mm
08:14 21.9 °C 19.4 °C 1011.3 hPa Oeste 6.9 km/h 11.3 km/h 86% 0.0 mm
08:19 21.9 °C 19.4 °C 1011.3 hPa SO 6.7 km/h 11.3 km/h 86% 0.0 mm
08:24 21.8 °C 19.4 °C 1011.2 hPa SSO 5.8 km/h 11.1 km/h 86% 0.0 mm
08:29 21.8 °C 19.4 °C 1011.2 hPa SSO 6.1 km/h 15.6 km/h 86% 0.0 mm
08:34 21.8 °C 19.3 °C 1011.3 hPa SSO 6.9 km/h 16.1 km/h 86% 0.0 mm
08:39 21.8 °C 19.3 °C 1011.3 hPa SO 7.1 km/h 11.9 km/h 86% 0.0 mm
08:44 21.8 °C 19.3 °C 1011.3 hPa OSO 7.6 km/h 11.9 km/h 86% 0.0 mm
08:49 21.8 °C 19.2 °C 1011.3 hPa SO 7.3 km/h 13 km/h 85.1% 0.0 mm
08:54 21.7 °C 19 °C 1011.3 hPa SSO 6.5 km/h 15.6 km/h 85% 0.0 mm
08:59 21.6 °C 19.2 °C 1011.3 hPa SO 7 km/h 16.1 km/h 86% 0.0 mm
09:04 21.6 °C 19.1 °C 1011.3 hPa OSO 8.4 km/h 13.7 km/h 86% 0.0 mm
09:09 21.5 °C 19 °C 1011.2 hPa SO 8.4 km/h 14.5 km/h 86% 0.0 mm
09:14 21.6 °C 19.1 °C 1011.2 hPa OSO 8.4 km/h 13 km/h 86% 0.0 mm
09:19 21.6 °C 19.2 °C 1011.3 hPa OSO 7.9 km/h 12.9 km/h 86% 0.0 mm
09:24 21.7 °C 19.2 °C 1011.3 hPa SO 6.5 km/h 11.3 km/h 86% 0.0 mm
09:29 21.8 °C 19.2 °C 1011.3 hPa OSO 6.3 km/h 11.9 km/h 85.5% 0.0 mm
09:34 21.8 °C 19.2 °C 1011.3 hPa OSO 5.8 km/h 11.3 km/h 85% 0.0 mm
09:39 21.8 °C 19.2 °C 1011.3 hPa SO 5.8 km/h 9.7 km/h 85% 0.0 mm
09:44 21.8 °C 19.2 °C 1011.3 hPa SO 5.8 km/h 11.1 km/h 85% 0.0 mm
09:49 21.9 °C 19.2 °C 1011.4 hPa OSO 6.1 km/h 11.3 km/h 85% 0.0 mm
09:54 21.9 °C 19.3 °C 1011.4 hPa SO 6.9 km/h 14.8 km/h 84.7% 0.0 mm
09:59 21.9 °C 19.1 °C 1011.4 hPa SO 6.9 km/h 14.8 km/h 84% 0.0 mm
10:04 21.9 °C 19.1 °C 1011.7 hPa OSO 6.9 km/h 14.5 km/h 84.4% 0.0 mm
10:09 21.9 °C 19.1 °C 1011.7 hPa OSO 6.9 km/h 14.8 km/h 84% 0.0 mm
10:14 22 °C 19.3 °C 1011.7 hPa SO 6.9 km/h 14.5 km/h 84.8% 0.0 mm
10:19 22.2 °C 19.4 °C 1011.9 hPa SO 7.1 km/h 13 km/h 84% 0.0 mm
10:24 22.2 °C 19.2 °C 1011.9 hPa SO 7.6 km/h 14 km/h 83.1% 0.0 mm
10:29 22.2 °C 19.2 °C 1011.9 hPa OSO 7.8 km/h 14.8 km/h 83% 0.0 mm
10:34 22.2 °C 19.2 °C 1011.9 hPa OSO 8.7 km/h 14.5 km/h 83% 0.0 mm
10:39 22.2 °C 19.2 °C 1011.9 hPa SSO 8.4 km/h 13.7 km/h 83% 0.0 mm
10:44 22.3 °C 19.3 °C 1011.9 hPa SO 7.6 km/h 14.5 km/h 83% 0.0 mm
10:49 22.4 °C 19.2 °C 1012.0 hPa SSO 7.4 km/h 14.8 km/h 82.4% 0.0 mm
10:54 22.4 °C 19.2 °C 1012.0 hPa SSO 6.9 km/h 14.8 km/h 82% 0.0 mm
10:59 22.5 °C 19.3 °C 1012.0 hPa Sur 7.7 km/h 14.8 km/h 81.9% 0.0 mm
11:04 22.6 °C 19.2 °C 1012.0 hPa SSO 9.5 km/h 14.5 km/h 81% 0.0 mm
11:09 22.7 °C 19.1 °C 1011.9 hPa SSO 9.3 km/h 14.8 km/h 80.4% 0.0 mm
11:14 22.7 °C 19.1 °C 1011.9 hPa SSO 8.7 km/h 14.5 km/h 80% 0.0 mm
11:19 22.8 °C 19 °C 1011.9 hPa SO 8.4 km/h 12.9 km/h 78.9% 0.0 mm
11:24 23.1 °C 19 °C 1011.9 hPa SO 7.6 km/h 14.8 km/h 77.8% 0.0 mm
11:29 23.3 °C 19 °C 1011.9 hPa SO 7.6 km/h 14.5 km/h 76.6% 0.0 mm
11:34 23.6 °C 18.7 °C 1011.9 hPa SSO 7.6 km/h 16.7 km/h 74.2% 0.0 mm
11:39 23.8 °C 18.4 °C 1011.7 hPa SSO 8.2 km/h 16.1 km/h 72% 0.0 mm
11:44 23.8 °C 18.1 °C 1011.7 hPa SSO 10 km/h 15.6 km/h 70.3% 0.0 mm
11:49 24.1 °C 18.1 °C 1011.7 hPa SO 9.9 km/h 16.1 km/h 69.3% 0.0 mm
11:54 24.2 °C 18.2 °C 1011.5 hPa SO 9.5 km/h 14.5 km/h 69% 0.0 mm
11:59 24.5 °C 18 °C 1011.5 hPa OSO 8.6 km/h 13.7 km/h 67% 0.0 mm
12:04 24.8 °C 17.7 °C 1011.5 hPa SO 6.5 km/h 14.5 km/h 64.9% 0.0 mm
12:09 25 °C 17.7 °C 1011.4 hPa Oeste 6.8 km/h 13 km/h 64.2% 0.0 mm
12:14 25.2 °C 17.7 °C 1011.4 hPa OSO 7.6 km/h 20.4 km/h 63.2% 0.0 mm
12:19 25.3 °C 17.4 °C 1011.4 hPa OSO 8 km/h 20.9 km/h 61.8% 0.0 mm
12:24 25.5 °C 17.6 °C 1011.2 hPa OSO 9.5 km/h 19.3 km/h 62% 0.0 mm
12:29 25.8 °C 17.8 °C 1011.2 hPa SO 8.7 km/h 13 km/h 61.2% 0.0 mm
12:34 26.2 °C 17.4 °C 1011.2 hPa SSO 6.5 km/h 17.2 km/h 58.3% 0.0 mm
12:39 26.3 °C 17.1 °C 1011.0 hPa SSO 7 km/h 17.7 km/h 57.1% 0.0 mm
12:44 26.4 °C 17.2 °C 1011.0 hPa SSO 8.7 km/h 17.7 km/h 56.9% 0.0 mm
12:49 26.7 °C 16.8 °C 1011.0 hPa SSO 8.7 km/h 14.5 km/h 54.6% 0.0 mm
12:54 26.9 °C 16.5 °C 1010.8 hPa SSO 8.7 km/h 14.8 km/h 52.8% 0.0 mm
12:59 27.2 °C 16.3 °C 1010.8 hPa Sur 8.7 km/h 14.8 km/h 51.3% 0.0 mm
13:04 27.6 °C 16.4 °C 1010.8 hPa SSO 8.7 km/h 16.1 km/h 50.5% 0.0 mm
13:09 27.8 °C 15.9 °C 1010.6 hPa SSO 9 km/h 16.7 km/h 48.5% 0.0 mm
13:14 27.8 °C 15.7 °C 1010.6 hPa SO 10 km/h 16.1 km/h 47.6% 0.0 mm
13:19 28.2 °C 15.8 °C 1010.6 hPa SSO 9.9 km/h 15.6 km/h 47.2% 0.0 mm
13:24 28.3 °C 15.6 °C 1010.2 hPa SSO 9.5 km/h 16.1 km/h 45.9% 0.0 mm
13:29 28.6 °C 15.7 °C 1010.2 hPa SO 9.2 km/h 18.5 km/h 45.6% 0.0 mm
13:34 28.8 °C 15.6 °C 1010.2 hPa SO 8.4 km/h 19.3 km/h 44.8% 0.0 mm
13:39 29.1 °C 15.4 °C 1010.0 hPa SO 8.4 km/h 14.8 km/h 43.5% 0.0 mm
13:44 29.3 °C 15.2 °C 1010.0 hPa OSO 8.7 km/h 14.8 km/h 42.5% 0.0 mm
13:49 29.5 °C 15.2 °C 1010.0 hPa SO 8.4 km/h 14.5 km/h 42% 0.0 mm
13:54 29.7 °C 14.9 °C 1009.8 hPa SSO 7.6 km/h 16.7 km/h 40.7% 0.0 mm
13:59 29.9 °C 14.9 °C 1009.8 hPa SO 7.9 km/h 16.1 km/h 40.2% 0.0 mm
14:04 30.2 °C 14.7 °C 1009.8 hPa SSO 8.7 km/h 16.7 km/h 39.1% 0.0 mm
14:09 30.3 °C 14.6 °C 1009.6 hPa SSO 8.4 km/h 16.1 km/h 38.6% 0.0 mm
14:14 30.5 °C 14.2 °C 1009.6 hPa SSO 7.6 km/h 18.5 km/h 37.1% 0.0 mm
14:19 30.5 °C 14.3 °C 1009.6 hPa SSO 7.8 km/h 19.3 km/h 37.2% 0.0 mm
14:24 30.7 °C 14.2 °C 1009.3 hPa SSO 8.7 km/h 14.8 km/h 36.7% 0.0 mm
14:29 30.8 °C 14 °C 1009.3 hPa SSO 9.1 km/h 15.6 km/h 36% 0.0 mm
14:34 31 °C 14 °C 1009.3 hPa SSO 10.3 km/h 20.4 km/h 35.4% 0.0 mm
14:39 31.1 °C 13.8 °C 1009.1 hPa SSO 10.2 km/h 20.9 km/h 35% 0.0 mm
14:44 31.2 °C 13.7 °C 1009.1 hPa SSO 10 km/h 18.5 km/h 34.4% 0.0 mm
14:49 31.3 °C 13.6 °C 1009.1 hPa SSO 9.7 km/h 19.3 km/h 34% 0.0 mm
14:54 31.4 °C 13.6 °C 1008.9 hPa Sur 8.7 km/h 17.2 km/h 33.9% 0.0 mm
14:59 31.5 °C 13.4 °C 1008.9 hPa SSE 9.2 km/h 17.7 km/h 33.2% 0.0 mm
15:04 31.7 °C 13.5 °C 1008.9 hPa SSO 10.3 km/h 16.1 km/h 33.2% 0.0 mm
15:09 31.9 °C 13.3 °C 1008.5 hPa SSO 9.9 km/h 18.5 km/h 32.4% 0.0 mm
15:14 31.9 °C 13.2 °C 1008.5 hPa SSO 8.7 km/h 19.3 km/h 32% 0.0 mm
15:19 32 °C 13.3 °C 1008.5 hPa SO 8.4 km/h 16.1 km/h 32% 0.0 mm
15:24 32.2 °C 13 °C 1008.5 hPa Oeste 7.6 km/h 16.7 km/h 31.2% 0.0 mm
15:29 32.3 °C 13 °C 1008.5 hPa SSO 8.1 km/h 16.1 km/h 31% 0.0 mm
15:34 32.5 °C 12.2 °C 1008.5 hPa Oeste 9.5 km/h 16.7 km/h 29.2% 0.0 mm
15:39 32.7 °C 12 °C 1008.3 hPa OSO 9.3 km/h 16.7 km/h 28.4% 0.0 mm
15:44 32.9 °C 12.1 °C 1008.3 hPa SO 8.7 km/h 16.7 km/h 28.2% 0.0 mm
15:49 33.1 °C 12 °C 1008.3 hPa OSO 8.7 km/h 16.7 km/h 27.8% 0.0 mm
15:54 33.2 °C 11.8 °C 1008.1 hPa SO 8.7 km/h 23.3 km/h 27.1% 0.0 mm
15:59 33.3 °C 11.5 °C 1008.1 hPa Oeste 9.2 km/h 24.1 km/h 26.6% 0.0 mm
16:04 33.3 °C 11.3 °C 1008.1 hPa SO 10.3 km/h 24.1 km/h 26.1% 0.0 mm
16:09 33.5 °C 11.6 °C 1007.8 hPa SO 9.4 km/h 18 km/h 26.3% 0.0 mm
16:14 33.6 °C 11.8 °C 1007.8 hPa ONO 6.9 km/h 19.3 km/h 26.6% 0.0 mm
16:19 33.7 °C 11.3 °C 1007.8 hPa SO 6.9 km/h 16.1 km/h 25.7% 0.0 mm
16:24 33.8 °C 11.1 °C 1007.8 hPa SSO 6.9 km/h 18.3 km/h 25.1% 0.0 mm
16:29 33.7 °C 11.1 °C 1007.8 hPa SSO 7.4 km/h 19.3 km/h 25.4% 0.0 mm
16:34 33.6 °C 11.3 °C 1007.8 hPa Sur 8.7 km/h 16.1 km/h 25.8% 0.0 mm
16:39 33.6 °C 11.3 °C 1007.6 hPa Sur 8.6 km/h 13.7 km/h 25.7% 0.0 mm
16:44 33.8 °C 11.3 °C 1007.6 hPa SSO 8.4 km/h 18.5 km/h 25.6% 0.0 mm
16:49 33.8 °C 11.2 °C 1007.6 hPa SSO 8.7 km/h 19.3 km/h 25.2% 0.0 mm
16:54 33.8 °C 11.2 °C 1007.4 hPa SO 10 km/h 20.4 km/h 25.3% 0.0 mm
16:59 33.8 °C 11.3 °C 1007.4 hPa SSO 10 km/h 20.9 km/h 25.5% 0.0 mm
17:04 33.8 °C 11.4 °C 1007.4 hPa SSO 10 km/h 19.3 km/h 25.6% 0.0 mm
17:09 33.8 °C 10.8 °C 1007.4 hPa SO 10.1 km/h 22.2 km/h 24.7% 0.0 mm
17:14 33.9 °C 10.8 °C 1007.4 hPa SSO 10.3 km/h 22.5 km/h 24.5% 0.0 mm
17:19 33.8 °C 10.4 °C 1007.4 hPa SSO 10.5 km/h 19.3 km/h 24% 0.0 mm
17:24 33.8 °C 10.3 °C 1007.2 hPa SSO 11.1 km/h 19.3 km/h 23.9% 0.0 mm
17:29 33.9 °C 10.1 °C 1007.2 hPa SSO 10.8 km/h 19.3 km/h 23.3% 0.0 mm
17:34 34 °C 10.6 °C 1007.2 hPa SSO 10 km/h 14.5 km/h 24% 0.0 mm
17:39 34.1 °C 10.7 °C 1007.2 hPa SSO 9.6 km/h 14.8 km/h 24% 0.0 mm
17:44 34.1 °C 10.2 °C 1007.2 hPa SSO 8.4 km/h 14.5 km/h 23.3% 0.0 mm
17:49 33.8 °C 10.1 °C 1007.2 hPa SSO 8.4 km/h 14.5 km/h 23.4% 0.0 mm
17:54 33.7 °C 10.3 °C 1007.2 hPa SSO 8.7 km/h 12.9 km/h 24% 0.0 mm
17:59 33.6 °C 10.1 °C 1007.2 hPa Sur 8.6 km/h 18.5 km/h 23.8% 0.0 mm
18:04 33.4 °C 9.6 °C 1007.2 hPa SO 8.4 km/h 19.3 km/h 23.3% 0.0 mm
18:09 33.5 °C 9.7 °C 1007.2 hPa SSO 8.4 km/h 14.5 km/h 23.3% 0.0 mm
18:14 33.7 °C 10.2 °C 1007.2 hPa OSO 8.7 km/h 14.5 km/h 23.9% 0.0 mm
18:19 33.8 °C 10.3 °C 1007.3 hPa OSO 8.1 km/h 13 km/h 23.9% 0.0 mm
18:24 33.9 °C 9.7 °C 1007.3 hPa OSO 6.5 km/h 14.8 km/h 22.9% 0.0 mm
18:29 33.8 °C 10 °C 1007.3 hPa ONO 7 km/h 14.5 km/h 23.4% 0.0 mm
18:34 33.7 °C 9.8 °C 1007.4 hPa ONO 8.4 km/h 19 km/h 23.2% 0.0 mm
18:39 33.4 °C 9.7 °C 1007.4 hPa ONO 8.4 km/h 19.3 km/h 23.3% 0.0 mm
18:44 33.3 °C 10 °C 1007.4 hPa ONO 8.7 km/h 20.4 km/h 23.9% 0.0 mm
18:49 33.2 °C 9.4 °C 1007.5 hPa ONO 9 km/h 20.9 km/h 23.3% 0.0 mm
18:54 33 °C 9.7 °C 1007.5 hPa ONO 10 km/h 19.3 km/h 23.9% 0.0 mm
18:59 32.8 °C 9.5 °C 1007.5 hPa ONO 10 km/h 20.4 km/h 23.9% 0.0 mm
19:04 32.7 °C 11 °C 1007.8 hPa OSO 10 km/h 20.9 km/h 26.7% 0.0 mm
19:09 32.3 °C 15.3 °C 1007.8 hPa SO 9.8 km/h 19.3 km/h 36.1% 0.0 mm
19:14 31.7 °C 16 °C 1007.8 hPa SO 9.5 km/h 19.3 km/h 38.9% 0.0 mm
19:19 31.4 °C 16 °C 1008.0 hPa SSO 9.3 km/h 14.8 km/h 39.7% 0.0 mm
19:24 31.1 °C 15.9 °C 1008.0 hPa SSO 8.7 km/h 17.2 km/h 40% 0.0 mm
19:29 30.8 °C 16 °C 1008.0 hPa SSO 9.1 km/h 17.7 km/h 40.9% 0.0 mm
19:34 30.6 °C 16.2 °C 1008.0 hPa SSO 10.3 km/h 17.7 km/h 42.1% 0.0 mm
19:39 30.4 °C 16.4 °C 1007.9 hPa SSO 9.9 km/h 16.1 km/h 43% 0.0 mm
19:44 30.2 °C 15.7 °C 1007.9 hPa SSO 8.7 km/h 14.5 km/h 41.5% 0.0 mm
19:49 30.2 °C 15.1 °C 1008.1 hPa SSO 8.7 km/h 14.8 km/h 40.2% 0.0 mm
19:54 30.1 °C 14.9 °C 1008.1 hPa SSO 8.7 km/h 17.2 km/h 39.7% 0.0 mm
19:59 30 °C 14.7 °C 1008.1 hPa Sur 8.9 km/h 17.7 km/h 39.4% 0.0 mm
20:04 29.8 °C 14.7 °C 1008.1 hPa Sur 9.5 km/h 17.2 km/h 39.8% 0.0 mm
20:09 29.7 °C 15 °C 1008.1 hPa Sur 9.7 km/h 17.7 km/h 40.8% 0.0 mm
20:14 29.5 °C 14.2 °C 1008.1 hPa Sur 10.3 km/h 16.1 km/h 39.4% 0.0 mm
20:19 29.4 °C 13.4 °C 1008.2 hPa Sur 10.2 km/h 16.7 km/h 37.6% 0.0 mm
20:24 29.3 °C 14.3 °C 1008.2 hPa Sur 10 km/h 15.6 km/h 39.8% 0.0 mm
20:29 29.1 °C 14.6 °C 1008.2 hPa Sur 9.8 km/h 16.1 km/h 41.2% 0.0 mm
20:34 28.8 °C 14.7 °C 1008.3 hPa Sur 9.5 km/h 14.8 km/h 42.2% 0.0 mm
20:39 28.7 °C 15.1 °C 1008.3 hPa Sur 9.5 km/h 14.8 km/h 43.7% 0.0 mm
20:44 28.4 °C 15.6 °C 1008.3 hPa SSO 9.5 km/h 18.5 km/h 45.8% 0.0 mm
20:49 28.2 °C 16 °C 1008.3 hPa SSO 9.9 km/h 19.3 km/h 47.5% 0.0 mm
20:54 28.1 °C 16 °C 1008.3 hPa SSO 11.1 km/h 16.1 km/h 47.9% 0.0 mm
20:59 27.9 °C 15.4 °C 1008.3 hPa SSO 10.6 km/h 18.5 km/h 46.3% 0.0 mm
21:04 28 °C 14.7 °C 1008.6 hPa SSO 9.5 km/h 19.3 km/h 44.1% 0.0 mm
21:09 28.1 °C 14.8 °C 1008.6 hPa SSO 9.3 km/h 14.8 km/h 44.4% 0.0 mm
21:14 28 °C 15.6 °C 1008.6 hPa SSO 8.7 km/h 14.8 km/h 46.9% 0.0 mm
21:19 27.8 °C 15.4 °C 1008.8 hPa SSO 8.7 km/h 15.6 km/h 46.8% 0.0 mm
21:24 27.7 °C 14.7 °C 1008.8 hPa SSO 8.7 km/h 16.1 km/h 45.1% 0.0 mm
21:29 27.8 °C 14.1 °C 1008.8 hPa SSO 8.7 km/h 14.8 km/h 43.1% 0.0 mm
21:34 27.8 °C 13.7 °C 1008.9 hPa SO 8.7 km/h 14 km/h 42% 0.0 mm
21:39 27.8 °C 13.6 °C 1008.9 hPa Oeste 7.9 km/h 14.8 km/h 41.7% 0.0 mm
21:44 27.7 °C 13.4 °C 1008.9 hPa OSO 5.8 km/h 9.3 km/h 41.3% 0.0 mm
21:49 27.6 °C 13.1 °C 1009.3 hPa SO 5.6 km/h 9.7 km/h 40.8% 0.0 mm
21:54 27.5 °C 12.6 °C 1009.3 hPa OSO 5 km/h 9.7 km/h 39.9% 0.0 mm
21:59 27.4 °C 12.4 °C 1009.3 hPa OSO 5 km/h 12.2 km/h 39.4% 0.0 mm
22:04 27.4 °C 12.2 °C 1009.5 hPa OSO 5 km/h 13 km/h 38.9% 0.0 mm
22:09 27.3 °C 12 °C 1009.5 hPa SO 5.2 km/h 11.3 km/h 38.6% 0.0 mm
22:14 27.3 °C 11.7 °C 1009.5 hPa SO 5.8 km/h 8 km/h 38% 0.0 mm
22:19 27.3 °C 11.5 °C 1009.7 hPa SO 5.6 km/h 8.4 km/h 37.5% 0.0 mm
22:24 27.3 °C 11.3 °C 1009.7 hPa SO 5 km/h 8.4 km/h 36.9% 0.0 mm
22:29 27.3 °C 11.8 °C 1009.7 hPa SSO 4.7 km/h 8 km/h 38.1% 0.0 mm
22:34 27.3 °C 13.3 °C 1010.0 hPa Sur 3.9 km/h 6.4 km/h 42.2% 0.0 mm
22:39 27 °C 12.8 °C 1010.0 hPa SSO 3.9 km/h 9.5 km/h 41.5% 0.0 mm
22:44 26.8 °C 11.7 °C 1010.0 hPa SO 3.9 km/h 9.7 km/h 39% 0.0 mm
22:49 26.7 °C 12 °C 1010.2 hPa SSO 4.1 km/h 9.7 km/h 40.1% 0.0 mm
22:54 26.6 °C 12.8 °C 1010.2 hPa SSO 5 km/h 10 km/h 42.6% 0.0 mm
22:59 26.3 °C 12.8 °C 1010.2 hPa Sur 5.8 km/h 11.1 km/h 43.1% 0.0 mm
23:04 26.2 °C 12.6 °C 1010.3 hPa Sur 7.6 km/h 11.3 km/h 43% 0.0 mm
23:09 26.2 °C 12.3 °C 1010.3 hPa Sur 7.6 km/h 13 km/h 42.2% 0.0 mm
23:14 26.1 °C 12.1 °C 1010.3 hPa Sur 7.6 km/h 13 km/h 42% 0.0 mm
23:19 25.9 °C 11.7 °C 1010.3 hPa SSO 7.8 km/h 13 km/h 41.1% 0.0 mm
23:24 25.9 °C 11.6 °C 1010.2 hPa Sur 8.4 km/h 13 km/h 40.9% 0.0 mm
23:29 25.9 °C 11.4 °C 1010.2 hPa Sur 8.2 km/h 11.3 km/h 40.3% 0.0 mm
23:34 25.9 °C 11.2 °C 1010.2 hPa Sur 7.6 km/h 11.1 km/h 39.8% 0.0 mm
23:39 26.1 °C 11 °C 1010.2 hPa SSO 7.6 km/h 11.3 km/h 38.8% 0.0 mm
23:44 26.2 °C 11.1 °C 1010.2 hPa SSO 7.6 km/h 11.9 km/h 38.7% 0.0 mm
23:49 26.2 °C 10.9 °C 1010.2 hPa SSO 7.6 km/h 11.3 km/h 38.5% 0.0 mm
23:54 26.1 °C 10.7 °C 1010.2 hPa SSO 7.6 km/h 11.3 km/h 38% 0.0 mm
23:59 26.1 °C 10.7 °C 1010.2 hPa Sur 7.4 km/h 11.3 km/h 38.3% 0.0 mm
Murcia-Puente Tocinos, Espa?a
Compliments of Weather Underground - 3.25 mb

La estación de MeteoMurcia.com, publica sus datos en los siguientes proyectos:

Weather Underground PWS IMURCIAP2 Meteoclimatic www.awekas.at

W3Counter
Web Analytics